To NAV CANADA Home Page Login to a new session Search on AWWS site Feedback and Comments Disclaimer Vers la page française équivalente Tips FAQ What's new on the site To the Forecasts and Observations / NOTAM section To "File a Flight Plan" website Publications and other links Update of the User's profile FIC Telephone Numbers My Weather Data Folder Route Weather Data Regional Weather Data Local Weather Data To the Forecasts and Observations / NOTAM section
Request Generated 04/30/2017 at 05:11:43 UTC . Weather information available at that time is displayed.

METAR/TAF

If you find any discrepancies between the coded METAR/TAF and the plain language METAR/TAF please use the coded METAR/TAF. LWIS bulletins are not decoded in plain language.

VANCOUVER INTL/BC    (show WxCam)

METAR CYVR 300500Z 07010KT 12SM SCT017 OVC037 09/07 A3004 RMK SC3SC5 SLP175=
METAR
LOCATION
CYVR - VANCOUVER INTL/BC
DATE - TIME
30 APRIL 2017 - 0500 UTC
WIND
70 TRUE @ 10  KNOTS
VISIBILITY
12 STAT.  MILES
RUNWAY VISUAL RANGE
WEATHER
CLOUDINESS
SCATTERED CLOUDS (3/8 - 4/8) 1700  FT
OVERCAST 3700  FT
TEMP / DEWPOINT
9 C / 7 C
ALTIMETER
30.04 IN HG
RECENT WEATHER
WIND SHEAR

METAR CYVR 300400Z 06009KT 12SM SCT015 OVC026 08/07 A3005 RMK SC3SC5 SLP177=
METAR
LOCATION
CYVR - VANCOUVER INTL/BC
DATE - TIME
30 APRIL 2017 - 0400 UTC
WIND
60 TRUE @ 9  KNOTS
VISIBILITY
12 STAT.  MILES
RUNWAY VISUAL RANGE
WEATHER
CLOUDINESS
SCATTERED CLOUDS (3/8 - 4/8) 1500  FT
OVERCAST 2600  FT
TEMP / DEWPOINT
8 C / 7 C
ALTIMETER
30.05 IN HG
RECENT WEATHER
WIND SHEAR

METAR CYVR 300300Z 06010KT 12SM OVC020 08/07 A3006 RMK SC8 SLP180=
METAR
LOCATION
CYVR - VANCOUVER INTL/BC
DATE - TIME
30 APRIL 2017 - 0300 UTC
WIND
60 TRUE @ 10  KNOTS
VISIBILITY
12 STAT.  MILES
RUNWAY VISUAL RANGE
WEATHER
CLOUDINESS
OVERCAST 2000  FT
TEMP / DEWPOINT
8 C / 7 C
ALTIMETER
30.06 IN HG
RECENT WEATHER
WIND SHEAR

TAF CYVR 300242Z 3003/0106 08010KT P6SM SCT020 OVC050 TEMPO 3003/3007 6SM -SHRA BR SCT008 OVC020 FM300700 12008KT P6SM SCT020 BKN040 TEMPO 3007/3014 BKN020 FM301400 27006KT P6SM FEW015 BKN040 FM301900 27007KT P6SM SCT040 RMK NXT FCST BY 300600Z=
TAF
LOCATION

CYVR - VANCOUVER INTL/BC
VALIDITY [UTC]
30 APR - 0242 to
01 MAY - 0600
 
TIMES
[UTC]
WIND
[DEGREES TRUE]
VISIBILITY
[STAT. MILES]
WEATHER
CLOUDINESS
[FEET AGL]
 
30 APR - 0300 to
30 APR - 0700
80 @ 10 KNOTS
6+
NIL
2000 SCATTERED
5000 OVERCAST
TEMPORARY CHANGES
30 APR - 0300 to
30 APR - 0700
 
6
LIGHT RAIN SHOWER
MIST
800 SCATTERED
2000 OVERCAST
 
30 APR - 0700 to
30 APR - 1400
120 @ 8 KNOTS
6+
NIL
2000 SCATTERED
4000 BROKEN
TEMPORARY CHANGES
30 APR - 0700 to
30 APR - 1400
 
 
 
2000 BROKEN
 
30 APR - 1400 to
30 APR - 1900
270 @ 6 KNOTS
6+
NIL
1500 FEW
4000 BROKEN
 
30 APR - 1900 to
01 MAY - 0600
270 @ 7 KNOTS
6+
NIL
4000 SCATTERED
REMARKS
THE NEXT FORECAST WILL BE ISSUED BY 0600 UTC ON DAY 30


Your time UTC time
Weather data provided by Environment Canada and NAV CANADA